Time;durP1;ratioP1;P1;durP2;ratioP2;P2;SDS_P1;SDS_P2;PMS_P1;PMS_P2;Temp;Humidity;BMP_temperature;BMP_pressure;BME280_temperature;BME280_humidity;BME280_pressure;Samples;Min_cycle;Max_cycle;Signal;HPM_P1;HPM_P2
2023/07/18 00:00:36;;;;;;;9.50;4.93;;;;;;;;;;5023091;28;20131;-75
2023/07/18 00:03:06;;;;;;;8.48;5.15;;;;;;;;;;5032980;28;20041;-75
2023/07/18 00:05:33;;;;;;;9.10;4.20;;;;;;;;;;5019768;28;20104;-75
2023/07/18 00:07:59;;;;;;;15.90;4.95;;;;;;;;;;5034849;28;20396;-75
2023/07/18 00:10:25;;;;;;;12.55;5.28;;;;;;;;;;5033460;28;20380;-74
2023/07/18 00:12:51;;;;;;;14.50;4.72;;;;;;;;;;5035154;28;20037;-75
2023/07/18 00:15:17;;;;;;;10.90;5.03;;;;;;;;;;5034945;28;20590;-75
2023/07/18 00:17:44;;;;;;;10.75;4.75;;;;;;;;;;5026384;28;20042;-75
2023/07/18 00:20:17;;;;;;;8.75;4.38;;;;;;;;;;5032990;28;20045;-75
2023/07/18 00:22:44;;;;;;;9.88;5.07;;;;;;;;;;5034879;28;20107;-75
2023/07/18 00:25:13;;;;;;;9.68;4.82;;;;;;;;;;5033274;28;20046;-75
2023/07/18 00:27:42;;;;;;;9.57;5.05;;;;;;;;;;5028651;28;20400;-75
2023/07/18 00:30:09;;;;;;;9.70;4.82;;;;;;;;;;5033948;28;20049;-75
2023/07/18 00:32:36;;;;;;;7.95;4.25;;;;;;;;;;5034479;28;20050;-75
2023/07/18 00:35:04;;;;;;;8.60;4.63;;;;;;;;;;5034364;28;20175;-75
2023/07/18 00:37:30;;;;;;;12.45;5.30;;;;;;;;;;5026905;28;20050;-75
2023/07/18 00:39:56;;;;;;;12.02;4.65;;;;;;;;;;5024500;28;20411;-75
2023/07/18 00:42:22;;;;;;;9.32;4.65;;;;;;;;;;5033190;28;20128;-75
2023/07/18 00:44:53;;;;;;;11.55;4.93;;;;;;;;;;5032198;28;20041;-75
2023/07/18 00:47:19;;;;;;;10.55;4.80;;;;;;;;;;5034114;28;20042;-75
2023/07/18 00:49:46;;;;;;;11.80;5.47;;;;;;;;;;5033425;28;20131;-75
2023/07/18 00:52:12;;;;;;;15.38;5.35;;;;;;;;;;5030460;28;20120;-74
2023/07/18 00:54:39;;;;;;;8.98;4.35;;;;;;;;;;5033333;28;20038;-75
2023/07/18 00:57:06;;;;;;;9.20;5.00;;;;;;;;;;5033621;28;20041;-75
2023/07/18 00:59:33;;;;;;;11.35;5.15;;;;;;;;;;5029800;28;20049;-75
2023/07/18 01:01:59;;;;;;;8.18;4.88;;;;;;;;;;5032607;28;20121;-75
2023/07/18 01:04:25;;;;;;;12.60;5.10;;;;;;;;;;5032201;28;20050;-75
2023/07/18 01:06:52;;;;;;;11.90;5.00;;;;;;;;;;5031729;28;20544;-75
2023/07/18 01:09:19;;;;;;;9.52;4.90;;;;;;;;;;5033661;28;20045;-75
2023/07/18 01:11:45;;;;;;;7.63;4.88;;;;;;;;;;5031801;28;20053;-75
2023/07/18 01:14:11;;;;;;;16.17;5.00;;;;;;;;;;5033462;28;20117;-75
2023/07/18 01:16:37;;;;;;;9.70;5.03;;;;;;;;;;5028969;28;20037;-75
2023/07/18 01:19:03;;;;;;;8.63;5.25;;;;;;;;;;5031385;28;20471;-75
2023/07/18 01:21:29;;;;;;;12.35;4.85;;;;;;;;;;5033270;28;20542;-74
2023/07/18 01:23:55;;;;;;;10.90;4.68;;;;;;;;;;5031152;28;20064;-74
2023/07/18 01:26:21;;;;;;;13.15;5.65;;;;;;;;;;5033972;28;20120;-75
2023/07/18 01:28:47;;;;;;;15.23;5.25;;;;;;;;;;5030553;28;20563;-75
2023/07/18 01:31:13;;;;;;;10.68;5.35;;;;;;;;;;5016933;28;20046;-75
2023/07/18 01:33:42;;;;;;;9.38;4.70;;;;;;;;;;5022138;28;20415;-75
2023/07/18 01:36:09;;;;;;;10.75;4.60;;;;;;;;;;5024314;28;20563;-75
2023/07/18 01:38:35;;;;;;;12.48;4.90;;;;;;;;;;5013924;28;20111;-75
2023/07/18 01:41:02;;;;;;;14.45;5.22;;;;;;;;;;5014475;28;20046;-75
2023/07/18 01:43:28;;;;;;;12.60;5.13;;;;;;;;;;5033621;28;20480;-75
2023/07/18 01:46:00;;;;;;;9.95;4.78;;;;;;;;;;5029039;28;20061;-75
2023/07/18 01:48:26;;;;;;;13.80;5.60;;;;;;;;;;5030635;28;20114;-75
2023/07/18 01:50:53;;;;;;;13.95;5.35;;;;;;;;;;5031619;28;20041;-75
2023/07/18 01:53:19;;;;;;;9.63;5.15;;;;;;;;;;5032706;28;20041;-75
2023/07/18 01:55:45;;;;;;;10.57;4.80;;;;;;;;;;5033303;28;20041;-75
2023/07/18 01:58:11;;;;;;;12.57;4.85;;;;;;;;;;5025687;28;20121;-75
2023/07/18 02:00:38;;;;;;;9.20;4.90;;;;;;;;;;5025361;28;20388;-75
2023/07/18 02:03:05;;;;;;;14.65;5.63;;;;;;;;;;5031380;28;20121;-75
2023/07/18 02:05:31;;;;;;;11.05;4.97;;;;;;;;;;5031939;28;20042;-75
2023/07/18 02:07:58;;;;;;;9.52;4.45;;;;;;;;;;5031975;28;20037;-74
2023/07/18 02:10:24;;;;;;;14.52;5.15;;;;;;;;;;5035519;28;20053;-75
2023/07/18 02:12:54;;;;;;;13.45;4.63;;;;;;;;;;5038618;28;20048;-75
2023/07/18 02:15:21;;;;;;;10.60;5.00;;;;;;;;;;5035766;28;20045;-75
2023/07/18 02:17:47;;;;;;;8.65;4.38;;;;;;;;;;5023129;28;20084;-75
2023/07/18 02:20:14;;;;;;;9.77;5.35;;;;;;;;;;5029154;28;20469;-75
2023/07/18 02:22:44;;;;;;;8.65;4.63;;;;;;;;;;5032170;28;20045;-75
2023/07/18 02:25:11;;;;;;;10.35;5.30;;;;;;;;;;5014697;28;20121;-75
2023/07/18 02:27:40;;;;;;;10.82;5.35;;;;;;;;;;5028579;28;20049;-75
2023/07/18 02:30:11;;;;;;;7.43;4.47;;;;;;;;;;5032117;28;20108;-75
2023/07/18 02:32:38;;;;;;;10.85;5.13;;;;;;;;;;5031476;28;20091;-75
2023/07/18 02:35:05;;;;;;;10.07;5.10;;;;;;;;;;5029152;28;20373;-75
2023/07/18 02:37:31;;;;;;;10.90;4.93;;;;;;;;;;5018368;28;20486;-75
2023/07/18 02:39:57;;;;;;;12.15;4.97;;;;;;;;;;5032701;28;20415;-75
2023/07/18 02:42:24;;;;;;;9.60;5.03;;;;;;;;;;5030013;28;20045;-75
2023/07/18 02:44:50;;;;;;;9.52;4.88;;;;;;;;;;5019596;28;20492;-75
2023/07/18 02:47:16;;;;;;;9.45;5.28;;;;;;;;;;5032919;28;20038;-75
2023/07/18 02:49:42;;;;;;;14.15;5.38;;;;;;;;;;5036305;28;20088;-75
2023/07/18 02:52:08;;;;;;;9.63;4.72;;;;;;;;;;5031112;28;20045;-75
2023/07/18 02:54:34;;;;;;;12.32;4.80;;;;;;;;;;5029960;28;20049;-75
2023/07/18 02:57:00;;;;;;;9.55;4.53;;;;;;;;;;5033569;28;20049;-75
2023/07/18 02:59:26;;;;;;;12.18;5.75;;;;;;;;;;5034313;28;20156;-75
2023/07/18 03:01:59;;;;;;;9.52;4.70;;;;;;;;;;5033507;28;20103;-75
2023/07/18 03:04:26;;;;;;;8.90;4.32;;;;;;;;;;5035270;28;20391;-75
2023/07/18 03:06:53;;;;;;;12.05;5.57;;;;;;;;;;5034569;28;20053;-75
2023/07/18 03:09:21;;;;;;;11.70;5.35;;;;;;;;;;5015560;28;20069;-75
2023/07/18 03:11:49;;;;;;;12.57;5.43;;;;;;;;;;5018414;28;20114;-75
2023/07/18 03:14:16;;;;;;;10.70;5.15;;;;;;;;;;5034653;28;20057;-75
2023/07/18 03:16:42;;;;;;;10.25;4.88;;;;;;;;;;5035326;28;20092;-75
2023/07/18 03:19:10;;;;;;;8.75;5.32;;;;;;;;;;5030057;28;20041;-75
2023/07/18 03:21:36;;;;;;;10.00;4.82;;;;;;;;;;5036178;28;20053;-75
2023/07/18 03:24:02;;;;;;;10.52;4.97;;;;;;;;;;5036149;28;20045;-75
2023/07/18 03:26:28;;;;;;;9.90;4.30;;;;;;;;;;5035528;28;20507;-75
2023/07/18 03:28:57;;;;;;;12.15;5.30;;;;;;;;;;5033634;28;20054;-75
2023/07/18 03:31:23;;;;;;;9.50;5.07;;;;;;;;;;5036350;28;20044;-74
2023/07/18 03:33:50;;;;;;;11.68;5.20;;;;;;;;;;5031819;28;20041;-74
2023/07/18 03:36:17;;;;;;;10.82;5.18;;;;;;;;;;5035778;28;20052;-75
2023/07/18 03:38:43;;;;;;;11.82;5.60;;;;;;;;;;5035872;28;20142;-75
2023/07/18 03:41:09;;;;;;;13.43;5.30;;;;;;;;;;5034741;28;20038;-75
2023/07/18 03:43:35;;;;;;;10.10;5.07;;;;;;;;;;5033348;28;20137;-75
2023/07/18 03:46:01;;;;;;;12.00;5.25;;;;;;;;;;5028594;28;20570;-75
2023/07/18 03:48:28;;;;;;;11.25;5.53;;;;;;;;;;5015219;28;20075;-75
2023/07/18 03:50:54;;;;;;;12.07;5.63;;;;;;;;;;5031511;28;20096;-75
2023/07/18 03:53:20;;;;;;;12.02;5.38;;;;;;;;;;5024610;28;20041;-75
2023/07/18 03:55:46;;;;;;;11.10;5.60;;;;;;;;;;5032139;28;20053;-75
2023/07/18 03:58:12;;;;;;;11.93;5.00;;;;;;;;;;5032786;28;20120;-75
2023/07/18 04:00:38;;;;;;;10.55;4.93;;;;;;;;;;5031585;28;20153;-75
2023/07/18 04:03:04;;;;;;;11.02;5.47;;;;;;;;;;5026731;28;20052;-75
2023/07/18 04:05:30;;;;;;;12.13;4.82;;;;;;;;;;5032676;28;20120;-75
2023/07/18 04:07:56;;;;;;;14.90;5.63;;;;;;;;;;5022709;28;20399;-75
2023/07/18 04:10:22;;;;;;;12.35;5.47;;;;;;;;;;5034631;28;20601;-75
2023/07/18 04:12:49;;;;;;;9.73;5.30;;;;;;;;;;5025447;28;20425;-75
2023/07/18 04:15:15;;;;;;;10.52;5.53;;;;;;;;;;5034961;28;20376;-75
2023/07/18 04:17:41;;;;;;;11.32;5.10;;;;;;;;;;5032698;28;20484;-75
2023/07/18 04:20:08;;;;;;;11.85;5.30;;;;;;;;;;5029535;28;20095;-75
2023/07/18 04:22:34;;;;;;;10.57;5.47;;;;;;;;;;5032868;28;20417;-75
2023/07/18 04:25:00;;;;;;;10.18;5.88;;;;;;;;;;5033521;28;20049;-75
2023/07/18 04:27:27;;;;;;;12.00;5.68;;;;;;;;;;5033425;28;20104;-75
2023/07/18 04:29:53;;;;;;;13.45;5.85;;;;;;;;;;5029687;28;20463;-75
2023/07/18 04:32:20;;;;;;;10.88;5.15;;;;;;;;;;5033001;28;20053;-75
2023/07/18 04:34:49;;;;;;;11.35;5.07;;;;;;;;;;5015549;28;20049;-75
2023/07/18 04:37:16;;;;;;;10.20;5.43;;;;;;;;;;5027302;28;20146;-75
2023/07/18 04:39:42;;;;;;;11.98;5.20;;;;;;;;;;5029382;28;20041;-75
2023/07/18 04:42:08;;;;;;;13.15;5.57;;;;;;;;;;5033838;28;20514;-75
2023/07/18 04:44:34;;;;;;;12.60;6.07;;;;;;;;;;5032099;28;20443;-75
2023/07/18 04:47:00;;;;;;;11.23;5.57;;;;;;;;;;5032075;28;20425;-75
2023/07/18 04:49:26;;;;;;;10.23;5.57;;;;;;;;;;5031921;28;20050;-75
2023/07/18 04:51:52;;;;;;;11.88;5.40;;;;;;;;;;5032756;28;20053;-75
2023/07/18 04:54:19;;;;;;;11.52;5.72;;;;;;;;;;5033173;28;20104;-75
2023/07/18 04:56:45;;;;;;;8.00;5.32;;;;;;;;;;5033577;28;20038;-75
2023/07/18 04:59:11;;;;;;;11.32;5.22;;;;;;;;;;5031936;28;20037;-75
2023/07/18 05:01:37;;;;;;;8.40;4.78;;;;;;;;;;5034023;28;20037;-75
2023/07/18 05:04:03;;;;;;;9.95;5.07;;;;;;;;;;5030649;28;20045;-75
2023/07/18 05:06:29;;;;;;;9.23;5.30;;;;;;;;;;5030314;28;20045;-75
2023/07/18 05:08:55;;;;;;;10.63;4.80;;;;;;;;;;5027718;28;20125;-75
2023/07/18 05:11:21;;;;;;;11.43;5.35;;;;;;;;;;5029989;28;20053;-75
2023/07/18 05:13:47;;;;;;;9.45;4.63;;;;;;;;;;5030916;28;20111;-74
2023/07/18 05:16:13;;;;;;;8.60;4.38;;;;;;;;;;5022619;28;20541;-75
2023/07/18 05:18:39;;;;;;;8.55;4.70;;;;;;;;;;5014891;28;20357;-75
2023/07/18 05:21:05;;;;;;;10.18;4.10;;;;;;;;;;5031288;28;20370;-75
2023/07/18 05:23:32;;;;;;;13.55;5.13;;;;;;;;;;5027455;28;20080;-75
2023/07/18 05:25:58;;;;;;;8.52;4.45;;;;;;;;;;5033734;28;20046;-75
2023/07/18 05:28:24;;;;;;;9.70;4.32;;;;;;;;;;5019487;28;20046;-75
2023/07/18 05:30:50;;;;;;;8.70;4.15;;;;;;;;;;5013832;28;20136;-75
2023/07/18 05:33:16;;;;;;;9.63;4.18;;;;;;;;;;5013010;28;20389;-75
2023/07/18 05:35:42;;;;;;;8.65;3.95;;;;;;;;;;5013795;28;20145;-75
2023/07/18 05:38:08;;;;;;;8.60;4.13;;;;;;;;;;5015385;28;20045;-75
2023/07/18 05:40:34;;;;;;;8.13;4.03;;;;;;;;;;5012311;28;20052;-76
2023/07/18 05:43:01;;;;;;;5.55;3.75;;;;;;;;;;5027772;28;20045;-75
2023/07/18 05:45:27;;;;;;;10.25;4.10;;;;;;;;;;5005873;28;20423;-75
2023/07/18 05:47:53;;;;;;;9.20;3.95;;;;;;;;;;5021172;28;20081;-75
2023/07/18 05:50:19;;;;;;;7.05;4.15;;;;;;;;;;5030207;28;20515;-75
2023/07/18 05:52:45;;;;;;;6.72;3.58;;;;;;;;;;5036319;28;20052;-75
2023/07/18 05:55:13;;;;;;;7.93;4.00;;;;;;;;;;5037100;28;20499;-75
2023/07/18 05:57:39;;;;;;;9.30;4.30;;;;;;;;;;5022029;28;20061;-75
2023/07/18 06:00:06;;;;;;;9.20;4.03;;;;;;;;;;5032037;28;20050;-75
2023/07/18 06:02:32;;;;;;;10.27;4.20;;;;;;;;;;5032167;28;20069;-75
2023/07/18 06:04:58;;;;;;;10.25;3.90;;;;;;;;;;5026687;28;20037;-75
2023/07/18 06:07:24;;;;;;;6.38;3.65;;;;;;;;;;5029402;28;20488;-75
2023/07/18 06:09:53;;;;;;;7.32;4.15;;;;;;;;;;5012350;28;20472;-75
2023/07/18 06:12:19;;;;;;;6.97;4.03;;;;;;;;;;5031041;28;20056;-75
2023/07/18 06:14:45;;;;;;;9.10;4.30;;;;;;;;;;5030822;28;20046;-75
2023/07/18 06:17:11;;;;;;;6.18;3.50;;;;;;;;;;5030229;28;20046;-75
2023/07/18 06:19:37;;;;;;;9.82;4.00;;;;;;;;;;5023466;28;20048;-75
2023/07/18 06:22:03;;;;;;;8.95;3.75;;;;;;;;;;5031728;28;20088;-75
2023/07/18 06:24:29;;;;;;;9.57;3.85;;;;;;;;;;5027021;28;20053;-75
2023/07/18 06:26:56;;;;;;;8.18;3.55;;;;;;;;;;5020257;28;20051;-75
2023/07/18 06:29:24;;;;;;;9.75;3.78;;;;;;;;;;5029659;28;20053;-76
2023/07/18 06:31:50;;;;;;;5.63;3.20;;;;;;;;;;5028252;28;20045;-78
2023/07/18 06:34:17;;;;;;;14.20;4.07;;;;;;;;;;5020982;28;20125;-75
2023/07/18 06:36:44;;;;;;;10.73;4.07;;;;;;;;;;5029393;28;20076;-79
2023/07/18 06:39:10;;;;;;;9.35;4.05;;;;;;;;;;5033168;28;20372;-75
2023/07/18 06:41:36;;;;;;;6.50;3.60;;;;;;;;;;5032426;28;20465;-75
2023/07/18 06:44:05;;;;;;;7.82;3.60;;;;;;;;;;5032916;28;20115;-76
2023/07/18 06:46:31;;;;;;;12.70;3.95;;;;;;;;;;5032123;28;20056;-75
2023/07/18 06:48:57;;;;;;;8.80;3.70;;;;;;;;;;5033055;28;20046;-75
2023/07/18 06:51:24;;;;;;;8.15;3.78;;;;;;;;;;5031824;28;20444;-75
2023/07/18 06:53:51;;;;;;;5.82;3.40;;;;;;;;;;5012032;28;20053;-76
2023/07/18 06:56:18;;;;;;;9.13;3.58;;;;;;;;;;5011502;28;20050;-76
2023/07/18 06:58:44;;;;;;;7.15;3.20;;;;;;;;;;5011792;28;20052;-75
2023/07/18 07:01:10;;;;;;;8.98;3.50;;;;;;;;;;5018614;28;20034;-75
2023/07/18 07:03:36;;;;;;;7.43;3.60;;;;;;;;;;5011408;28;20370;-76
2023/07/18 07:06:09;;;;;;;9.20;2.88;;;;;;;;;;5011701;28;20128;-76
2023/07/18 07:08:35;;;;;;;6.85;2.80;;;;;;;;;;5012191;28;20125;-76
2023/07/18 07:11:08;;;;;;;5.80;2.63;;;;;;;;;;5011981;28;20252;-76
2023/07/18 07:13:37;;;;;;;6.53;3.15;;;;;;;;;;5011300;28;20107;-76
2023/07/18 07:16:04;;;;;;;5.18;2.50;;;;;;;;;;5020545;28;20045;-76
2023/07/18 07:18:30;;;;;;;5.55;2.50;;;;;;;;;;5031399;28;20042;-76
2023/07/18 07:20:56;;;;;;;4.40;2.30;;;;;;;;;;5030371;28;20056;-76
2023/07/18 07:23:22;;;;;;;4.35;2.25;;;;;;;;;;5031101;28;20068;-76
2023/07/18 07:25:49;;;;;;;3.55;2.17;;;;;;;;;;5031745;28;20038;-76
2023/07/18 07:28:15;;;;;;;5.53;2.40;;;;;;;;;;5032161;28;20100;-76
2023/07/18 07:30:41;;;;;;;4.05;2.15;;;;;;;;;;5032067;28;20053;-76
2023/07/18 07:33:07;;;;;;;7.05;2.47;;;;;;;;;;5033138;28;20061;-76
2023/07/18 07:35:33;;;;;;;3.67;1.90;;;;;;;;;;5026198;28;20045;-76
2023/07/18 07:37:59;;;;;;;4.38;2.50;;;;;;;;;;5016378;28;20045;-76
2023/07/18 07:40:25;;;;;;;3.20;1.92;;;;;;;;;;5015951;28;20045;-76
2023/07/18 07:42:51;;;;;;;3.70;1.85;;;;;;;;;;5015924;28;20152;-76
2023/07/18 07:45:18;;;;;;;3.47;1.98;;;;;;;;;;5015861;28;20341;-76
2023/07/18 07:47:44;;;;;;;3.60;2.13;;;;;;;;;;5016602;28;20054;-76
2023/07/18 07:50:12;;;;;;;3.70;1.95;;;;;;;;;;5024397;28;20499;-76
2023/07/18 07:52:38;;;;;;;3.85;2.30;;;;;;;;;;5034287;28;20052;-76
2023/07/18 07:55:05;;;;;;;3.80;2.17;;;;;;;;;;5035802;28;20052;-76
2023/07/18 07:57:31;;;;;;;2.55;1.85;;;;;;;;;;5035773;28;20042;-76
2023/07/18 07:59:57;;;;;;;4.47;2.20;;;;;;;;;;5035643;28;20156;-75
2023/07/18 08:02:23;;;;;;;4.20;2.40;;;;;;;;;;5035910;28;20053;-76
2023/07/18 08:04:49;;;;;;;3.25;1.98;;;;;;;;;;5036874;28;20045;-76
2023/07/18 08:07:16;;;;;;;4.25;2.20;;;;;;;;;;5031612;28;20041;-76
2023/07/18 08:09:42;;;;;;;6.10;2.58;;;;;;;;;;5035619;28;20131;-76
2023/07/18 08:12:12;;;;;;;4.97;2.60;;;;;;;;;;5036010;28;20083;-76
2023/07/18 08:14:38;;;;;;;3.90;2.55;;;;;;;;;;5034899;28;20037;-76
2023/07/18 08:17:05;;;;;;;4.90;1.92;;;;;;;;;;5034563;28;20048;-76
2023/07/18 08:19:32;;;;;;;2.90;1.85;;;;;;;;;;5035063;28;20554;-76
2023/07/18 08:21:58;;;;;;;4.60;2.53;;;;;;;;;;5034964;28;20476;-76
2023/07/18 08:24:24;;;;;;;2.30;2.00;;;;;;;;;;5034795;28;20080;-76
2023/07/18 08:26:50;;;;;;;4.78;2.10;;;;;;;;;;5035076;28;20495;-76
2023/07/18 08:29:17;;;;;;;3.28;2.10;;;;;;;;;;5021082;28;20885;-76
2023/07/18 08:31:43;;;;;;;2.90;2.30;;;;;;;;;;5033541;28;20045;-76
2023/07/18 08:34:09;;;;;;;3.30;1.90;;;;;;;;;;5033615;28;20064;-76
2023/07/18 08:36:35;;;;;;;2.67;1.90;;;;;;;;;;5033387;28;20049;-76
2023/07/18 08:39:05;;;;;;;3.25;1.90;;;;;;;;;;5034574;28;20052;-76
2023/07/18 08:41:31;;;;;;;3.47;2.05;;;;;;;;;;5033042;28;20049;-76
2023/07/18 08:43:59;;;;;;;3.60;2.10;;;;;;;;;;5032680;28;20041;-76
2023/07/18 08:46:26;;;;;;;3.90;2.17;;;;;;;;;;5014295;28;20042;-76
2023/07/18 08:48:53;;;;;;;4.05;2.00;;;;;;;;;;5014919;28;20038;-76
2023/07/18 08:51:21;;;;;;;4.20;2.13;;;;;;;;;;5014387;28;20046;-76
2023/07/18 08:53:47;;;;;;;3.50;2.10;;;;;;;;;;5027552;28;20068;-76
2023/07/18 08:56:14;;;;;;;3.58;1.90;;;;;;;;;;5033333;28;20124;-76
2023/07/18 08:58:40;;;;;;;2.92;2.10;;;;;;;;;;5020961;28;20523;-76
2023/07/18 09:01:08;;;;;;;2.95;2.10;;;;;;;;;;5029459;28;20049;-76
2023/07/18 09:03:34;;;;;;;2.53;1.83;;;;;;;;;;5033837;28;20084;-76
2023/07/18 09:06:04;;;;;;;3.15;1.98;;;;;;;;;;5034058;28;20460;-76
2023/07/18 09:08:43;;;;;;;3.33;1.90;;;;;;;;;;5034077;28;20038;-76
2023/07/18 09:11:12;;;;;;;5.28;1.98;;;;;;;;;;5014078;28;20635;-76
2023/07/18 09:13:38;;;;;;;5.07;2.78;;;;;;;;;;5014574;28;20046;-76
2023/07/18 09:16:22;;;;;;;3.20;1.83;;;;;;;;;;5024492;28;20420;-76
2023/07/18 09:18:49;;;;;;;3.83;2.25;;;;;;;;;;5024743;28;20107;-76
2023/07/18 09:21:15;;;;;;;3.70;2.05;;;;;;;;;;5033738;28;20041;-76
2023/07/18 09:23:42;;;;;;;4.28;2.30;;;;;;;;;;5033965;28;20037;-76
2023/07/18 09:26:12;;;;;;;3.05;2.00;;;;;;;;;;5033805;28;20072;-76
2023/07/18 09:28:39;;;;;;;4.75;2.47;;;;;;;;;;5034606;28;20515;-76
2023/07/18 09:31:21;;;;;;;4.68;2.13;;;;;;;;;;5039848;28;20053;-76
2023/07/18 09:33:47;;;;;;;4.28;2.28;;;;;;;;;;5040299;28;20064;-76
2023/07/18 09:36:24;;;;;;;4.55;2.30;;;;;;;;;;5022625;28;20053;-76
2023/07/18 09:38:51;;;;;;;3.17;2.13;;;;;;;;;;5016108;28;20057;-76
2023/07/18 09:41:18;;;;;;;2.83;2.10;;;;;;;;;;5032616;28;20057;-77
2023/07/18 09:43:45;;;;;;;4.30;2.03;;;;;;;;;;5033013;28;20041;-79
2023/07/18 09:46:12;;;;;;;3.38;2.35;;;;;;;;;;5034115;28;20526;-77
2023/07/18 09:48:39;;;;;;;5.95;2.75;;;;;;;;;;5023455;28;20091;-77
2023/07/18 09:51:08;;;;;;;3.08;2.20;;;;;;;;;;5032053;28;20079;-76
2023/07/18 09:53:34;;;;;;;6.50;2.40;;;;;;;;;;5026240;28;20049;-76
2023/07/18 09:56:01;;;;;;;9.25;2.30;;;;;;;;;;5032747;28;20042;-76
2023/07/18 09:58:28;;;;;;;4.85;2.22;;;;;;;;;;5028733;28;20366;-76
2023/07/18 10:00:55;;;;;;;4.72;2.10;;;;;;;;;;5031388;28;20455;-76
2023/07/18 10:03:23;;;;;;;4.22;2.47;;;;;;;;;;5026633;28;20140;-76
2023/07/18 10:05:49;;;;;;;3.40;1.80;;;;;;;;;;5030177;28;20045;-76
2023/07/18 10:08:15;;;;;;;2.50;2.28;;;;;;;;;;5033127;28;20129;-76
2023/07/18 10:10:41;;;;;;;5.28;2.45;;;;;;;;;;5033160;28;20042;-76
2023/07/18 10:13:07;;;;;;;3.38;2.40;;;;;;;;;;5032976;28;20045;-76
2023/07/18 10:15:49;;;;;;;4.35;2.30;;;;;;;;;;5032641;28;20045;-76
2023/07/18 10:18:16;;;;;;;5.18;2.30;;;;;;;;;;5012346;28;20041;-76
2023/07/18 10:20:56;;;;;;;4.32;2.30;;;;;;;;;;5013709;28;20465;-76
2023/07/18 10:23:39;;;;;;;3.50;2.28;;;;;;;;;;5032933;28;20037;-76
2023/07/18 10:26:05;;;;;;;3.08;2.30;;;;;;;;;;5029204;28;20034;-76
2023/07/18 10:28:47;;;;;;;4.18;2.20;;;;;;;;;;5032409;28;20093;-76
2023/07/18 10:31:27;;;;;;;4.13;2.55;;;;;;;;;;5032861;28;20081;-76
2023/07/18 10:34:09;;;;;;;4.97;2.33;;;;;;;;;;5022786;28;20045;-76
2023/07/18 10:36:36;;;;;;;4.70;2.42;;;;;;;;;;5013327;28;20050;-76
2023/07/18 10:39:09;;;;;;;4.95;2.45;;;;;;;;;;5014763;28;20113;-76
2023/07/18 10:41:36;;;;;;;5.80;2.50;;;;;;;;;;5023197;28;20120;-76
2023/07/18 10:44:02;;;;;;;3.13;2.30;;;;;;;;;;5032889;28;20100;-76
2023/07/18 10:46:38;;;;;;;3.67;2.17;;;;;;;;;;5033029;28;20052;-76
2023/07/18 10:49:04;;;;;;;4.45;2.42;;;;;;;;;;5033071;28;20120;-76
2023/07/18 10:51:31;;;;;;;3.63;2.28;;;;;;;;;;5030600;28;20049;-76
2023/07/18 10:53:58;;;;;;;3.85;2.30;;;;;;;;;;5029987;28;20091;-76
2023/07/18 10:56:25;;;;;;;2.95;2.17;;;;;;;;;;5027488;28;20073;-76
2023/07/18 10:58:51;;;;;;;3.05;2.03;;;;;;;;;;5028821;28;20069;-76
2023/07/18 11:01:18;;;;;;;3.53;2.25;;;;;;;;;;5013091;28;20052;-76
2023/07/18 11:03:45;;;;;;;4.22;2.30;;;;;;;;;;5022223;28;20042;-76
2023/07/18 11:06:14;;;;;;;4.50;2.40;;;;;;;;;;5027680;28;20045;-76
2023/07/18 11:08:44;;;;;;;4.32;2.40;;;;;;;;;;5017692;28;20046;-76
2023/07/18 11:11:10;;;;;;;4.05;2.35;;;;;;;;;;5036389;28;20045;-76
2023/07/18 11:13:37;;;;;;;3.17;2.00;;;;;;;;;;5031908;28;20184;-76
2023/07/18 11:16:17;;;;;;;3.58;2.03;;;;;;;;;;5016891;28;20435;-76
2023/07/18 11:18:45;;;;;;;5.68;2.28;;;;;;;;;;5016881;28;20096;-76
2023/07/18 11:21:12;;;;;;;3.63;2.10;;;;;;;;;;5016548;28;20232;-76
2023/07/18 11:23:39;;;;;;;5.55;2.25;;;;;;;;;;5023709;28;20053;-76
2023/07/18 11:26:12;;;;;;;4.13;2.30;;;;;;;;;;5033696;28;20049;-76
2023/07/18 11:28:39;;;;;;;3.38;2.10;;;;;;;;;;5035475;28;20133;-76
2023/07/18 11:31:06;;;;;;;3.60;2.33;;;;;;;;;;5032202;28;20081;-76
2023/07/18 11:33:32;;;;;;;3.72;2.30;;;;;;;;;;5016128;28;20452;-76
2023/07/18 11:35:59;;;;;;;2.90;2.00;;;;;;;;;;5016057;28;20165;-76
2023/07/18 11:38:29;;;;;;;3.30;1.92;;;;;;;;;;5030561;28;20045;-76
2023/07/18 11:40:55;;;;;;;3.78;1.80;;;;;;;;;;5035315;28;20125;-76
2023/07/18 11:43:21;;;;;;;3.00;2.00;;;;;;;;;;5033971;28;20053;-76
2023/07/18 11:45:47;;;;;;;2.58;1.90;;;;;;;;;;5028438;28;20050;-76
2023/07/18 11:48:14;;;;;;;3.78;2.10;;;;;;;;;;5016434;28;20038;-76
2023/07/18 11:50:43;;;;;;;3.17;1.90;;;;;;;;;;5017413;28;20077;-76
2023/07/18 11:53:09;;;;;;;3.40;2.05;;;;;;;;;;5030378;28;20500;-76
2023/07/18 11:55:35;;;;;;;4.07;2.17;;;;;;;;;;5030424;28;20045;-76
2023/07/18 11:58:03;;;;;;;4.05;2.10;;;;;;;;;;5034898;28;20052;-76
2023/07/18 12:00:29;;;;;;;4.35;2.00;;;;;;;;;;5035340;28;20041;-76
2023/07/18 12:02:55;;;;;;;3.03;2.00;;;;;;;;;;5035047;28;20046;-76
2023/07/18 12:05:21;;;;;;;5.60;1.80;;;;;;;;;;5030053;28;20117;-76
2023/07/18 12:07:47;;;;;;;3.00;1.95;;;;;;;;;;5015595;28;20056;-76
2023/07/18 12:10:18;;;;;;;3.83;2.20;;;;;;;;;;5024450;28;20037;-76
2023/07/18 12:12:44;;;;;;;4.00;2.20;;;;;;;;;;5024424;28;20053;-76
2023/07/18 12:15:11;;;;;;;3.95;2.03;;;;;;;;;;5031826;28;22217;-76
2023/07/18 12:17:38;;;;;;;2.78;2.00;;;;;;;;;;5034760;28;20041;-76
2023/07/18 12:20:04;;;;;;;3.55;2.00;;;;;;;;;;5020471;28;20124;-76
2023/07/18 12:22:31;;;;;;;3.63;2.25;;;;;;;;;;5034368;28;20045;-76
2023/07/18 12:24:57;;;;;;;4.88;2.40;;;;;;;;;;5011323;28;20048;-76
2023/07/18 12:27:23;;;;;;;4.05;1.98;;;;;;;;;;5015011;28;20050;-76
2023/07/18 12:29:49;;;;;;;5.22;2.03;;;;;;;;;;5013679;28;20050;-76
2023/07/18 12:32:15;;;;;;;4.22;2.10;;;;;;;;;;5025989;28;20049;-76
2023/07/18 12:34:42;;;;;;;2.15;1.80;;;;;;;;;;5032844;28;20060;-76
2023/07/18 12:37:08;;;;;;;3.40;2.00;;;;;;;;;;5033802;28;20499;-76
2023/07/18 12:39:34;;;;;;;3.25;2.08;;;;;;;;;;5034076;28;20037;-76
2023/07/18 12:42:00;;;;;;;3.35;1.80;;;;;;;;;;5034563;28;20184;-76
2023/07/18 12:44:47;;;;;;;3.17;2.10;;;;;;;;;;5012499;28;20045;-76
2023/07/18 12:47:13;;;;;;;3.33;2.10;;;;;;;;;;5020496;28;20045;-76
2023/07/18 12:49:41;;;;;;;3.53;2.10;;;;;;;;;;5033229;28;20048;-76
2023/07/18 12:52:08;;;;;;;3.25;1.90;;;;;;;;;;5034610;28;20118;-76
2023/07/18 12:54:34;;;;;;;9.65;2.45;;;;;;;;;;5035166;28;20080;-77
2023/07/18 12:57:00;;;;;;;3.83;2.05;;;;;;;;;;5034390;28;20049;-79
2023/07/18 12:59:30;;;;;;;3.35;2.03;;;;;;;;;;5032777;28;20128;-76
2023/07/18 13:01:56;;;;;;;2.58;2.13;;;;;;;;;;5032350;28;20622;-77
2023/07/18 13:04:23;;;;;;;2.70;2.00;;;;;;;;;;5029802;28;20205;-76
2023/07/18 13:06:49;;;;;;;4.40;2.00;;;;;;;;;;5031575;28;20060;-76
2023/07/18 13:09:16;;;;;;;3.92;2.20;;;;;;;;;;5021366;28;20476;-76
2023/07/18 13:11:42;;;;;;;4.20;2.30;;;;;;;;;;5021309;28;20046;-76
2023/07/18 13:14:08;;;;;;;4.25;2.08;;;;;;;;;;5029206;28;20506;-76
2023/07/18 13:16:34;;;;;;;3.22;1.90;;;;;;;;;;5025467;28;20046;-77
2023/07/18 13:19:01;;;;;;;6.50;1.90;;;;;;;;;;5044783;28;20141;-78
2023/07/18 13:21:27;;;;;;;2.05;1.60;;;;;;;;;;5041113;28;20042;-78
2023/07/18 13:23:53;;;;;;;4.05;2.03;;;;;;;;;;5046133;28;20048;-81
2023/07/18 13:26:20;;;;;;;4.18;2.28;;;;;;;;;;5024339;28;20080;-80
2023/07/18 13:28:46;;;;;;;2.95;1.80;;;;;;;;;;5032976;28;20061;-82
2023/07/18 13:31:14;;;;;;;5.43;2.22;;;;;;;;;;5041094;28;20495;-83
2023/07/18 13:33:40;;;;;;;3.60;2.30;;;;;;;;;;5025219;28;20053;-77
2023/07/18 13:36:06;;;;;;;3.85;2.20;;;;;;;;;;5013953;28;20408;-77
2023/07/18 13:38:32;;;;;;;5.13;2.60;;;;;;;;;;5014151;28;20135;-76
2023/07/18 13:40:59;;;;;;;6.40;2.92;;;;;;;;;;5031437;28;20048;-78
2023/07/18 13:43:25;;;;;;;3.63;2.45;;;;;;;;;;5036245;28;20130;-78
2023/07/18 13:45:51;;;;;;;3.22;2.15;;;;;;;;;;5033097;28;20100;-80
2023/07/18 13:48:17;;;;;;;5.68;3.10;;;;;;;;;;5033376;28;20077;-76
2023/07/18 13:50:44;;;;;;;4.97;2.90;;;;;;;;;;5033946;28;20156;-77
2023/07/18 13:53:10;;;;;;;3.95;2.55;;;;;;;;;;5025269;28;20064;-79
2023/07/18 13:55:36;;;;;;;3.63;3.13;;;;;;;;;;5015145;28;20073;-77
2023/07/18 13:58:02;;;;;;;5.00;3.20;;;;;;;;;;5033061;28;20041;-77
2023/07/18 14:00:29;;;;;;;5.63;3.55;;;;;;;;;;5035694;28;20045;-77
2023/07/18 14:02:55;;;;;;;10.00;3.40;;;;;;;;;;5035067;28;20075;-77
2023/07/18 14:05:21;;;;;;;3.75;2.63;;;;;;;;;;5032947;28;20037;-76
2023/07/18 14:07:48;;;;;;;4.60;2.67;;;;;;;;;;5033842;28;20100;-77
2023/07/18 14:10:14;;;;;;;3.97;2.38;;;;;;;;;;5032902;28;20060;-77
2023/07/18 14:12:40;;;;;;;4.50;2.55;;;;;;;;;;5030142;28;20147;-78
2023/07/18 14:15:07;;;;;;;4.20;2.45;;;;;;;;;;5027345;28;20167;-77
2023/07/18 14:17:33;;;;;;;7.13;2.40;;;;;;;;;;5007831;28;20407;-77
2023/07/18 14:19:59;;;;;;;6.78;2.40;;;;;;;;;;5023983;28;20042;-78
2023/07/18 14:22:25;;;;;;;4.43;2.35;;;;;;;;;;5022544;28;20104;-77
2023/07/18 14:24:51;;;;;;;4.75;2.22;;;;;;;;;;5026572;28;20431;-78
2023/07/18 14:27:18;;;;;;;3.50;2.90;;;;;;;;;;5026172;28;20392;-78
2023/07/18 14:29:44;;;;;;;3.95;2.60;;;;;;;;;;5031318;28;20089;-78
2023/07/18 14:32:10;;;;;;;5.28;2.20;;;;;;;;;;5027379;28;20091;-78
2023/07/18 14:34:37;;;;;;;3.13;2.33;;;;;;;;;;5030618;28;20049;-78
2023/07/18 14:37:04;;;;;;;5.90;2.40;;;;;;;;;;5029803;28;20450;-78
2023/07/18 14:39:30;;;;;;;2.25;2.00;;;;;;;;;;5022791;28;20050;-78